Terminal Aerodrome Forecast
Issued by NWS

Home | Current Version | Previous Version | Text Only | Print | Product List | Glossary On
Versions: 1 2 3 4 5 6 7 8 9 10 11 12 13 14 15 16 17
000
FTUS43 KBIS 281200 AAA
TAFJMS
TAF AMD
KJMS 281222Z 2812/2912 11007KT P6SM OVC012
      TEMPO 2812/2816 3SM -SNPL BKN008
     FM281900 13009KT P6SM SCT060 BKN090
     FM290300 15008KT P6SM FEW030 SCT080=

USA.gov is the U.S. government's official web portal to all federal, state and local government web resources and services.